New Cypress, Kentucky
Current Conditions -  °F | °C
As of 9:35 AM on Saturday 22 Nov 2014 (Local Time) from KUCY Reporting Station
Scattered Clouds Scattered Clouds  
Wind Chill: 13°   Ceiling: Unl
Heat Index: 13°   Visibility: 10mi
Dew Point:   Wind: 14mph
Humidity: 63%   Direction: 180°S
Pressure: 30.25"   Gusts: NA
Location:  36.6807°N, 88.9572°W
Report Text: KUCY 221535Z AUTO 18012KT 10SM SCT100 13/06 A3025 RMK
Loading
Personal Weather Stations






























Interactive Weather Map New forecast layout! Learn more

10-Day Weather Forecast

Advertisements
Track Severe Weather on mobile